| time (UTC) | temp F | wind direction | speed MPH | gust MPH | rain 1hr in | rain 24hr in | rain mn in | humidity % | barometer mb |
| 20260502222021 | 68 | 297 | 6.0 | 9.0 | 0.00 | 0.00 | 0.00 | 66 | 1015.7 |
| 20260502221543 | 68 | 273 | 5.0 | 10.0 | 0.00 | 0.00 | 0.00 | 65 | 1015.7 |
| 20260502221021 | 67 | 295 | 6.0 | 13.0 | 0.00 | 0.00 | 0.00 | 66 | 1015.8 |
| 20260502220522 | 67 | 309 | 7.0 | 13.0 | 0.00 | 0.00 | 0.00 | 64 | 1015.7 |
| 20260502220042 | 67 | 295 | 6.0 | 14.0 | 0.00 | 0.00 | 0.00 | 64 | 1015.8 |
| 20260502215524 | 67 | 318 | 7.0 | 14.0 | 0.00 | 0.00 | 0.00 | 64 | 1015.9 |
| 20260502215020 | 67 | 300 | 7.0 | 14.0 | 0.00 | 0.00 | 0.00 | 62 | 1016.0 |
| 20260502214540 | 67 | 317 | 6.0 | 14.0 | 0.00 | 0.00 | 0.00 | 65 | 1016.1 |
| 20260502214023 | 67 | 250 | 8.0 | 14.0 | 0.00 | 0.00 | 0.00 | 65 | 1016.1 |
| 20260502213520 | 66 | 294 | 8.0 | 15.0 | 0.00 | 0.00 | 0.00 | 64 | 1016.1 |
| 20260502213058 | 66 | 316 | 10.0 | 15.0 | 0.00 | 0.00 | 0.00 | 65 | 1016.2 |
| 20260502212521 | 66 | 291 | 10.0 | 15.0 | 0.00 | 0.00 | 0.00 | 66 | 1016.2 |
| 20260502212022 | 66 | 291 | 8.0 | 14.0 | 0.00 | 0.00 | 0.00 | 67 | 1016.3 |
| 20260502211538 | 66 | 308 | 9.0 | 14.0 | 0.00 | 0.00 | 0.00 | 67 | 1016.4 |
| 20260502211021 | 66 | 293 | 9.0 | 12.0 | 0.00 | 0.00 | 0.00 | 68 | 1016.3 |
| 20260502210521 | 66 | 302 | 8.0 | 13.0 | 0.00 | 0.00 | 0.00 | 70 | 1016.3 |
| 20260502210044 | 65 | 302 | 7.0 | 14.0 | 0.00 | 0.00 | 0.00 | 72 | 1016.4 |
| 20260502205521 | 65 | 293 | 9.0 | 14.0 | 0.00 | 0.00 | 0.00 | 72 | 1016.5 |
| 20260502205024 | 65 | 302 | 9.0 | 13.0 | 0.00 | 0.00 | 0.00 | 72 | 1016.6 |
| 20260502204545 | 65 | 305 | 8.0 | 13.0 | 0.00 | 0.00 | 0.00 | 74 | 1016.6 |
| 20260502204021 | 64 | 288 | 10.0 | 15.0 | 0.00 | 0.00 | 0.00 | 73 | 1016.7 |
| 20260502203524 | 65 | 314 | 9.0 | 15.0 | 0.00 | 0.00 | 0.00 | 73 | 1016.5 |
| 20260502203042 | 65 | 296 | 8.0 | 14.0 | 0.00 | 0.00 | 0.00 | 72 | 1016.7 |
| 20260502202520 | 65 | 276 | 9.0 | 12.0 | 0.00 | 0.00 | 0.00 | 71 | 1016.6 |
| 20260502202020 | 65 | 291 | 8.0 | 11.0 | 0.00 | 0.00 | 0.00 | 70 | 1016.7 |
| 20260502201541 | 65 | 278 | 6.0 | 14.0 | 0.00 | 0.00 | 0.00 | 72 | 1016.9 |
| 20260502201021 | 64 | 296 | 7.0 | 14.0 | 0.00 | 0.00 | 0.00 | 73 | 1017.0 |
| 20260502200521 | 64 | 294 | 9.0 | 14.0 | 0.00 | 0.00 | 0.00 | 73 | 1017.0 |
| 20260502200100 | 64 | 298 | 9.0 | 13.0 | 0.00 | 0.00 | 0.00 | 74 | 1017.0 |
| 20260502195524 | 64 | 302 | 9.0 | 16.0 | 0.00 | 0.00 | 0.00 | 74 | 1017.0 |
| 20260502195020 | 63 | 288 | 9.0 | 16.0 | 0.00 | 0.00 | 0.00 | 76 | 1017.0 |
| 20260502194558 | 63 | 297 | 10.0 | 16.0 | 0.00 | 0.00 | 0.00 | 74 | 1017.1 |
| 20260502194021 | 64 | 301 | 6.0 | 10.0 | 0.00 | 0.00 | 0.00 | 75 | 1017.1 |
| 20260502193521 | 63 | 276 | 7.0 | 13.0 | 0.00 | 0.00 | 0.00 | 75 | 1017.1 |
| 20260502193043 | 64 | 272 | 7.0 | 14.0 | 0.00 | 0.00 | 0.00 | 77 | 1017.0 |
| 20260502192521 | 63 | 275 | 10.0 | 14.0 | 0.00 | 0.00 | 0.00 | 75 | 1017.0 |
| 20260502192023 | 63 | 284 | 7.0 | 13.0 | 0.00 | 0.00 | 0.00 | 77 | 1017.1 |
| 20260502191546 | 63 | 299 | 9.0 | 13.0 | 0.00 | 0.00 | 0.00 | 76 | 1017.1 |
| 20260502191021 | 63 | 301 | 8.0 | 12.0 | 0.00 | 0.00 | 0.00 | 75 | 1017.1 |
| 20260502190525 | 63 | 311 | 8.0 | 12.0 | 0.00 | 0.00 | 0.00 | 77 | 1017.0 |
| 20260502190043 | 63 | 291 | 8.0 | 11.0 | 0.00 | 0.00 | 0.00 | 76 | 1017.1 |
| 20260502185520 | 63 | 281 | 8.0 | 14.0 | 0.00 | 0.00 | 0.00 | 78 | 1017.2 |
| 20260502185021 | 63 | 307 | 7.0 | 14.0 | 0.00 | 0.00 | 0.00 | 79 | 1017.2 |
| 20260502184540 | 62 | 295 | 9.0 | 14.0 | 0.00 | 0.00 | 0.00 | 79 | 1017.2 |
| 20260502184026 | 62 | 301 | 9.0 | 13.0 | 0.00 | 0.00 | 0.00 | 79 | 1017.3 |
| 20260502183522 | 62 | 295 | 9.0 | 13.0 | 0.00 | 0.00 | 0.00 | 81 | 1017.2 |
| 20260502183045 | 62 | 297 | 8.0 | 13.0 | 0.00 | 0.00 | 0.00 | 79 | 1017.2 |
| 20260502182522 | 62 | 322 | 9.0 | 13.0 | 0.00 | 0.00 | 0.00 | 80 | 1017.2 |
| 20260502182022 | 63 | 306 | 8.0 | 11.0 | 0.00 | 0.00 | 0.00 | 77 | 1017.4 |
| 20260502181537 | 63 | 299 | 6.0 | 11.0 | 0.00 | 0.00 | 0.00 | 76 | 1017.4 |
| 20260502181021 | 63 | 302 | 7.0 | 11.0 | 0.00 | 0.00 | 0.00 | 77 | 1017.4 |
| 20260502180523 | 63 | 321 | 6.0 | 10.0 | 0.00 | 0.00 | 0.00 | 77 | 1017.5 |
| 20260502170521 | 60 | 307 | 5.0 | 11.0 | 0.00 | 0.00 | 0.00 | 83 | 1017.4 |
| 20260502164021 | 59 | 311 | 7.0 | 12.0 | 0.00 | 0.00 | 0.00 | 85 | 1017.9 |
| 20260502163521 | 59 | 307 | 7.0 | 14.0 | 0.00 | 0.00 | 0.00 | 85 | 1018.0 |
| 20260502163042 | 59 | 307 | 8.0 | 14.0 | 0.00 | 0.00 | 0.00 | 86 | 1018.0 |
| 20260502162521 | 59 | 302 | 8.0 | 14.0 | 0.00 | 0.00 | 0.00 | 86 | 1017.9 |
| 20260502162021 | 59 | 295 | 9.0 | 14.0 | 0.00 | 0.00 | 0.00 | 86 | 1017.9 |
| 20260502161544 | 58 | 325 | 8.0 | 14.0 | 0.00 | 0.00 | 0.00 | 87 | 1018.0 |
| 20260502161021 | 58 | 330 | 8.0 | 15.0 | 0.00 | 0.00 | 0.00 | 87 | 1018.0 |
| 20260502160523 | 58 | 316 | 9.0 | 15.0 | 0.00 | 0.00 | 0.00 | 87 | 1018.0 |
| 20260502152023 | 55 | 0 | 0.0 | 2.0 | 0.00 | 0.00 | 0.00 | 92 | 1018.4 |
| 20260502151537 | 55 | 0 | 0.0 | 3.0 | 0.00 | 0.00 | 0.00 | 92 | 1018.2 |
| 20260502151023 | 55 | 141 | 1.0 | 3.0 | 0.00 | 0.00 | 0.00 | 92 | 1018.2 |
| 20260502150523 | 55 | 118 | 2.0 | 8.0 | 0.00 | 0.00 | 0.00 | 92 | 1018.2 |
| 20260502150108 | 55 | 354 | 3.0 | 10.0 | 0.00 | 0.00 | 0.00 | 92 | 1018.1 |
| 20260502130523 | 52 | 0 | 0.0 | 2.0 | 0.00 | 0.00 | 0.00 | 96 | 1016.9 |
| 20260502123524 | 52 | 0 | 0.0 | 2.0 | 0.00 | 0.00 | 0.00 | 95 | 1016.8 |
| 20260502123038 | 52 | 0 | 0.0 | 0.0 | 0.00 | 0.00 | 0.00 | 95 | 1016.8 |
| 20260502122523 | 52 | 0 | 0.0 | 1.0 | 0.00 | 0.00 | 0.00 | 95 | 1016.7 |
| 20260502122021 | 52 | 0 | 0.0 | 2.0 | 0.00 | 0.00 | 0.00 | 95 | 1016.7 |
| 20260502121552 | 52 | 0 | 0.0 | 2.0 | 0.00 | 0.00 | 0.00 | 95 | 1016.6 |
| 20260502121024 | 52 | 0 | 0.0 | 2.0 | 0.00 | 0.00 | 0.00 | 95 | 1016.6 |
| 20260502120521 | 52 | 0 | 0.0 | 0.0 | 0.00 | 0.00 | 0.00 | 94 | 1016.7 |
| 20260502115525 | 52 | 0 | 0.0 | 0.0 | 0.00 | 0.00 | 0.00 | 94 | 1016.6 |
| 20260502115021 | 52 | 0 | 0.0 | 0.0 | 0.00 | 0.00 | 0.00 | 94 | 1016.6 |
| 20260502114541 | 52 | 0 | 0.0 | 0.0 | 0.00 | 0.00 | 0.00 | 94 | 1016.5 |
| 20260502114024 | 52 | 0 | 0.0 | 0.0 | 0.00 | 0.00 | 0.00 | 94 | 1016.5 |
| 20260502113521 | 53 | 0 | 0.0 | 2.0 | 0.00 | 0.00 | 0.00 | 94 | 1016.6 |
| 20260502113046 | 53 | 0 | 0.0 | 2.0 | 0.00 | 0.00 | 0.00 | 94 | 1016.5 |
| 20260502112523 | 53 | 116 | 0.0 | 2.0 | 0.00 | 0.00 | 0.00 | 94 | 1016.5 |
| 20260502112026 | 52 | 0 | 0.0 | 2.0 | 0.00 | 0.00 | 0.00 | 94 | 1016.5 |
| 20260502111543 | 52 | 109 | 1.0 | 2.0 | 0.00 | 0.00 | 0.00 | 95 | 1016.4 |
| 20260502111023 | 52 | 0 | 0.0 | 1.0 | 0.00 | 0.00 | 0.00 | 94 | 1016.5 |
| 20260502110523 | 52 | 0 | 0.0 | 2.0 | 0.00 | 0.00 | 0.00 | 94 | 1016.4 |
| 20260502110037 | 52 | 47 | 1.0 | 2.0 | 0.00 | 0.00 | 0.00 | 94 | 1016.2 |
| 20260502105523 | 52 | 23 | 1.0 | 2.0 | 0.00 | 0.00 | 0.00 | 94 | 1016.2 |
| 20260502105027 | 52 | 34 | 0.0 | 2.0 | 0.00 | 0.00 | 0.00 | 94 | 1016.2 |
| 20260502104544 | 52 | 35 | 1.0 | 2.0 | 0.00 | 0.00 | 0.00 | 94 | 1016.2 |
| 20260502104022 | 52 | 6 | 1.0 | 2.0 | 0.00 | 0.00 | 0.00 | 94 | 1016.2 |
| 20260502103521 | 52 | 348 | 1.0 | 1.0 | 0.00 | 0.00 | 0.00 | 94 | 1016.2 |
| 20260502103102 | 52 | 286 | 0.0 | 2.0 | 0.00 | 0.00 | 0.00 | 93 | 1016.2 |
| 20260502102523 | 52 | 286 | 0.0 | 2.0 | 0.00 | 0.00 | 0.00 | 93 | 1016.3 |
| 20260502102021 | 52 | 286 | 1.0 | 2.0 | 0.00 | 0.00 | 0.00 | 93 | 1016.3 |
| 20260502101549 | 52 | 311 | 0.0 | 2.0 | 0.00 | 0.00 | 0.00 | 93 | 1016.1 |
| 20260502101020 | 52 | 311 | 1.0 | 2.0 | 0.00 | 0.00 | 0.00 | 93 | 1016.2 |
| 20260502100523 | 52 | 340 | 1.0 | 2.0 | 0.00 | 0.00 | 0.00 | 93 | 1016.2 |
| 20260502091023 | 53 | 336 | 1.0 | 2.0 | 0.00 | 0.00 | 0.00 | 91 | 1016.3 |
| 20260502090522 | 53 | 43 | 1.0 | 3.0 | 0.00 | 0.00 | 0.00 | 91 | 1016.2 |
| 20260502071025 | 56 | 338 | 0.0 | 2.0 | 0.00 | 0.00 | 0.00 | 87 | 1015.7 |
| 20260502070524 | 56 | 0 | 0.0 | 4.0 | 0.00 | 0.00 | 0.00 | 87 | 1015.7 |
| 20260502070040 | 56 | 272 | 0.0 | 5.0 | 0.00 | 0.00 | 0.00 | 86 | 1015.7 |
| 20260502065524 | 56 | 266 | 3.0 | 5.0 | 0.00 | 0.00 | 0.00 | 86 | 1015.6 |
| 20260502065022 | 56 | 275 | 2.0 | 4.0 | 0.00 | 0.00 | 0.00 | 87 | 1015.4 |
| 20260502064542 | 56 | 295 | 1.0 | 3.0 | 0.00 | 0.00 | 0.00 | 87 | 1015.4 |
| 20260502064023 | 56 | 303 | 1.0 | 5.0 | 0.00 | 0.00 | 0.00 | 88 | 1015.4 |
| 20260502063523 | 56 | 0 | 1.0 | 5.0 | 0.00 | 0.00 | 0.00 | 88 | 1015.5 |
| 20260502063054 | 56 | 86 | 3.0 | 5.0 | 0.00 | 0.00 | 0.00 | 89 | 1015.5 |
| 20260502062523 | 55 | 98 | 1.0 | 2.0 | 0.00 | 0.00 | 0.00 | 89 | 1015.4 |
| 20260502062026 | 56 | 63 | 1.0 | 3.0 | 0.00 | 0.00 | 0.00 | 89 | 1015.4 |
| 20260502061542 | 56 | 84 | 2.0 | 4.0 | 0.00 | 0.00 | 0.00 | 87 | 1015.3 |
| 20260502061024 | 56 | 41 | 0.0 | 4.0 | 0.00 | 0.00 | 0.00 | 87 | 1015.4 |
| 20260502060520 | 56 | 295 | 2.0 | 4.0 | 0.00 | 0.00 | 0.00 | 87 | 1015.4 |
| 20260502060041 | 56 | 271 | 2.0 | 3.0 | 0.00 | 0.00 | 0.00 | 87 | 1015.5 |
| 20260502055524 | 56 | 254 | 1.0 | 3.0 | 0.00 | 0.00 | 0.00 | 88 | 1015.5 |
| 20260502055024 | 56 | 226 | 0.0 | 3.0 | 0.00 | 0.00 | 0.00 | 88 | 1015.4 |
| 20260502054552 | 56 | 249 | 1.0 | 5.0 | 0.00 | 0.00 | 0.00 | 89 | 1015.4 |
| 20260502054023 | 56 | 276 | 2.0 | 5.0 | 0.00 | 0.00 | 0.00 | 89 | 1015.4 |
| 20260502053523 | 56 | 243 | 1.0 | 4.0 | 0.00 | 0.00 | 0.00 | 90 | 1015.5 |
| 20260502053046 | 55 | 233 | 1.0 | 4.0 | 0.00 | 0.00 | 0.00 | 90 | 1015.5 |
| 20260502052521 | 55 | 255 | 1.0 | 2.0 | 0.00 | 0.00 | 0.00 | 90 | 1015.5 |
| 20260502052028 | 55 | 234 | 0.0 | 1.0 | 0.00 | 0.00 | 0.00 | 89 | 1015.5 |
| 20260502051541 | 55 | 0 | 0.0 | 1.0 | 0.00 | 0.00 | 0.00 | 89 | 1015.3 |
| 20260502051020 | 55 | 0 | 0.0 | 2.0 | 0.00 | 0.00 | 0.00 | 89 | 1015.3 |
| 20260502050524 | 56 | 0 | 0.0 | 2.0 | 0.00 | 0.00 | 0.00 | 89 | 1015.3 |
| 20260502050037 | 56 | 224 | 0.0 | 2.0 | 0.00 | 0.00 | 0.00 | 88 | 1015.3 |
| 20260502045523 | 56 | 0 | 0.0 | 2.0 | 0.00 | 0.00 | 0.00 | 88 | 1015.3 |
| 20260502045023 | 56 | 226 | 0.0 | 2.0 | 0.00 | 0.00 | 0.00 | 88 | 1015.4 |
| 20260502044542 | 56 | 266 | 1.0 | 2.0 | 0.00 | 0.00 | 0.00 | 88 | 1015.4 |
| 20260502044024 | 57 | 180 | 0.0 | 2.0 | 0.00 | 0.00 | 0.00 | 88 | 1015.3 |
| 20260502043528 | 57 | 105 | 2.0 | 2.0 | 0.00 | 0.00 | 0.00 | 87 | 1015.3 |
| 20260502043049 | 57 | 67 | 1.0 | 2.0 | 0.00 | 0.00 | 0.00 | 87 | 1015.2 |
| 20260502042524 | 57 | 267 | 0.0 | 1.0 | 0.00 | 0.00 | 0.00 | 86 | 1015.1 |
| 20260502042022 | 57 | 266 | 0.0 | 1.0 | 0.00 | 0.00 | 0.00 | 85 | 1015.2 |
| 20260502041540 | 57 | 269 | 1.0 | 1.0 | 0.00 | 0.00 | 0.00 | 85 | 1015.2 |
| 20260502041023 | 58 | 27 | 0.0 | 1.0 | 0.00 | 0.00 | 0.00 | 85 | 1015.1 |
| 20260502040523 | 59 | 27 | 0.0 | 1.0 | 0.00 | 0.00 | 0.00 | 86 | 1015.0 |
| 20260502040049 | 59 | 0 | 0.0 | 1.0 | 0.00 | 0.00 | 0.00 | 84 | 1015.1 |
| 20260502035525 | 59 | 0 | 0.0 | 1.0 | 0.00 | 0.00 | 0.00 | 83 | 1014.9 |
| 20260502035024 | 60 | 0 | 0.0 | 1.0 | 0.00 | 0.00 | 0.00 | 80 | 1014.9 |
| 20260502034537 | 60 | 0 | 0.0 | 2.0 | 0.00 | 0.00 | 0.00 | 79 | 1014.9 |
| 20260502034023 | 60 | 281 | 1.0 | 3.0 | 0.00 | 0.00 | 0.00 | 79 | 1014.8 |
| 20260502033522 | 60 | 283 | 1.0 | 3.0 | 0.00 | 0.00 | 0.00 | 79 | 1014.8 |
| 20260502033042 | 61 | 276 | 1.0 | 3.0 | 0.00 | 0.00 | 0.00 | 78 | 1014.9 |
| 20260502032522 | 61 | 280 | 1.0 | 3.0 | 0.00 | 0.00 | 0.00 | 78 | 1014.7 |
| 20260502032022 | 61 | 266 | 1.0 | 3.0 | 0.00 | 0.00 | 0.00 | 77 | 1014.7 |
| 20260502031536 | 61 | 269 | 1.0 | 4.0 | 0.00 | 0.00 | 0.00 | 77 | 1014.7 |
| 20260502031022 | 62 | 277 | 2.0 | 4.0 | 0.00 | 0.00 | 0.00 | 76 | 1014.6 |
| 20260502030521 | 62 | 295 | 2.0 | 4.0 | 0.00 | 0.00 | 0.00 | 75 | 1014.6 |
| 20260502030048 | 62 | 271 | 2.0 | 4.0 | 0.00 | 0.00 | 0.00 | 75 | 1014.5 |
| 20260502025522 | 62 | 269 | 1.0 | 4.0 | 0.00 | 0.00 | 0.00 | 74 | 1014.5 |
| 20260502025022 | 62 | 282 | 1.0 | 5.0 | 0.00 | 0.00 | 0.00 | 75 | 1014.5 |
| 20260502024544 | 62 | 124 | 1.0 | 5.0 | 0.00 | 0.00 | 0.00 | 78 | 1014.5 |
| 20260502024022 | 63 | 132 | 2.0 | 6.0 | 0.00 | 0.00 | 0.00 | 76 | 1014.5 |
| 20260502023522 | 63 | 155 | 1.0 | 9.0 | 0.00 | 0.00 | 0.00 | 74 | 1014.5 |
| 20260502023043 | 63 | 287 | 4.0 | 9.0 | 0.00 | 0.00 | 0.00 | 73 | 1014.4 |
| 20260502022522 | 63 | 299 | 4.0 | 10.0 | 0.00 | 0.00 | 0.00 | 73 | 1014.4 |
| 20260502022023 | 63 | 292 | 6.0 | 10.0 | 0.00 | 0.00 | 0.00 | 73 | 1014.5 |
| 20260502021542 | 64 | 295 | 5.0 | 9.0 | 0.00 | 0.00 | 0.00 | 71 | 1014.4 |
| 20260502021022 | 64 | 258 | 5.0 | 9.0 | 0.00 | 0.00 | 0.00 | 70 | 1014.4 |
| 20260502020522 | 65 | 295 | 4.0 | 7.0 | 0.00 | 0.00 | 0.00 | 69 | 1014.5 |
| 20260502020041 | 65 | 272 | 4.0 | 8.0 | 0.00 | 0.00 | 0.00 | 70 | 1014.4 |
| 20260502015522 | 65 | 278 | 4.0 | 8.0 | 0.00 | 0.00 | 0.00 | 69 | 1014.4 |
| 20260502015022 | 65 | 294 | 4.0 | 8.0 | 0.00 | 0.00 | 0.00 | 70 | 1014.6 |
| 20260502014542 | 65 | 307 | 4.0 | 8.0 | 0.00 | 0.00 | 0.00 | 69 | 1014.6 |
| 20260502014021 | 65 | 309 | 4.0 | 8.0 | 0.00 | 0.00 | 0.00 | 70 | 1014.6 |
| 20260502013521 | 64 | 292 | 4.0 | 9.0 | 0.00 | 0.00 | 0.00 | 71 | 1014.7 |
| 20260502013037 | 64 | 296 | 5.0 | 10.0 | 0.00 | 0.00 | 0.00 | 71 | 1014.7 |
| 20260502012521 | 64 | 277 | 5.0 | 10.0 | 0.00 | 0.00 | 0.00 | 69 | 1014.7 |
| 20260502012023 | 65 | 293 | 6.0 | 10.0 | 0.00 | 0.00 | 0.00 | 69 | 1014.8 |
| 20260502011537 | 65 | 277 | 5.0 | 7.0 | 0.00 | 0.00 | 0.00 | 69 | 1014.9 |
| 20260502011023 | 65 | 280 | 3.0 | 8.0 | 0.00 | 0.00 | 0.00 | 70 | 1014.9 |
| 20260502010521 | 65 | 313 | 4.0 | 8.0 | 0.00 | 0.00 | 0.00 | 71 | 1014.9 |
| 20260502010053 | 64 | 321 | 5.0 | 8.0 | 0.00 | 0.00 | 0.00 | 72 | 1014.9 |
| 20260502005525 | 64 | 277 | 5.0 | 8.0 | 0.00 | 0.00 | 0.00 | 72 | 1014.9 |
| 20260502005022 | 64 | 289 | 5.0 | 8.0 | 0.00 | 0.00 | 0.00 | 71 | 1014.9 |
| 20260502004541 | 64 | 285 | 5.0 | 9.0 | 0.00 | 0.00 | 0.00 | 71 | 1014.9 |
| 20260502004022 | 65 | 299 | 6.0 | 9.0 | 0.00 | 0.00 | 0.00 | 69 | 1015.0 |
| 20260502003522 | 65 | 290 | 6.0 | 9.0 | 0.00 | 0.00 | 0.00 | 68 | 1015.1 |
| 20260502003039 | 65 | 297 | 6.0 | 10.0 | 0.00 | 0.00 | 0.00 | 67 | 1015.1 |
| 20260502002521 | 66 | 281 | 6.0 | 10.0 | 0.00 | 0.00 | 0.00 | 68 | 1015.1 |
| 20260502002028 | 66 | 288 | 4.0 | 8.0 | 0.00 | 0.00 | 0.00 | 65 | 1015.2 |
| 20260502001540 | 66 | 276 | 5.0 | 8.0 | 0.00 | 0.00 | 0.00 | 65 | 1015.2 |
| 20260502001023 | 67 | 296 | 5.0 | 8.0 | 0.00 | 0.00 | 0.00 | 64 | 1015.2 |
| 20260502000523 | 66 | 261 | 4.0 | 9.0 | 0.00 | 0.00 | 0.00 | 66 | 1015.2 |
| 20260502000038 | 66 | 297 | 5.0 | 9.0 | 0.00 | 0.00 | 0.00 | 68 | 1015.2 |
| 20260501235523 | 66 | 265 | 5.0 | 8.0 | 0.00 | 0.00 | 0.00 | 66 | 1015.2 |
| 20260501235022 | 66 | 256 | 3.0 | 8.0 | 0.00 | 0.00 | 0.00 | 66 | 1015.2 |
| 20260501234550 | 66 | 275 | 5.0 | 8.0 | 0.00 | 0.00 | 0.00 | 67 | 1015.2 |
| 20260501234022 | 66 | 289 | 5.0 | 8.0 | 0.00 | 0.00 | 0.00 | 65 | 1015.1 |
| 20260501233524 | 66 | 299 | 4.0 | 8.0 | 0.00 | 0.00 | 0.00 | 65 | 1015.2 |
| 20260501233053 | 66 | 301 | 4.0 | 8.0 | 0.00 | 0.00 | 0.00 | 67 | 1015.4 |
| 20260501232521 | 66 | 297 | 4.0 | 8.0 | 0.00 | 0.00 | 0.00 | 66 | 1015.3 |
| 20260501232024 | 66 | 282 | 4.0 | 10.0 | 0.00 | 0.00 | 0.00 | 66 | 1015.3 |
| 20260501231541 | 66 | 304 | 6.0 | 10.0 | 0.00 | 0.00 | 0.00 | 68 | 1015.4 |
| 20260501231022 | 66 | 302 | 7.0 | 10.0 | 0.00 | 0.00 | 0.00 | 67 | 1015.4 |
| 20260501230522 | 66 | 290 | 5.0 | 10.0 | 0.00 | 0.00 | 0.00 | 67 | 1015.5 |
| 20260501230041 | 66 | 279 | 6.0 | 10.0 | 0.00 | 0.00 | 0.00 | 67 | 1015.4 |
| 20260501225522 | 66 | 308 | 6.0 | 11.0 | 0.00 | 0.00 | 0.00 | 67 | 1015.6 |
| 20260501225025 | 65 | 296 | 7.0 | 11.0 | 0.00 | 0.00 | 0.00 | 67 | 1015.6 |
| 20260501224540 | 66 | 295 | 6.0 | 11.0 | 0.00 | 0.00 | 0.00 | 67 | 1015.7 |
| 20260501224024 | 66 | 294 | 7.0 | 10.0 | 0.00 | 0.00 | 0.00 | 66 | 1015.7 |
| 20260501223521 | 66 | 310 | 6.0 | 9.0 | 0.00 | 0.00 | 0.00 | 65 | 1015.7 |
| 20260501223043 | 66 | 276 | 3.0 | 8.0 | 0.00 | 0.00 | 0.00 | 66 | 1015.7 |
| 20260501222522 | 66 | 307 | 5.0 | 10.0 | 0.00 | 0.00 | 0.00 | 69 | 1015.7 |